createdAt,value
2018-08-20T00:01:28.393Z,7.37
2018-08-20T00:04:16.550Z,7.87
2018-08-20T00:06:56.000Z,7.87
2018-08-20T00:09:39.117Z,6.67
2018-08-20T00:12:12.345Z,7.03
2018-08-20T00:14:43.182Z,6.77
2018-08-20T00:17:17.622Z,7.70
2018-08-20T00:19:47.433Z,6.90
2018-08-20T00:22:17.681Z,8.07
2018-08-20T00:25:00.328Z,7.47
2018-08-20T00:27:41.457Z,6.67
2018-08-20T00:30:16.064Z,7.20
2018-08-20T00:32:50.618Z,6.43
2018-08-20T00:35:21.203Z,6.93
2018-08-20T00:37:52.661Z,6.57
2018-08-20T00:40:22.629Z,7.63
2018-08-20T00:42:52.263Z,6.60
2018-08-20T00:45:22.180Z,6.80
2018-08-20T00:47:51.888Z,7.67
2018-08-20T00:50:21.724Z,6.63
2018-08-20T00:52:51.912Z,7.37
2018-08-20T00:55:22.193Z,7.77
2018-08-20T00:57:53.151Z,6.77
2018-08-20T01:00:22.776Z,7.40
2018-08-20T01:02:52.332Z,7.63
2018-08-20T01:05:21.054Z,7.03
2018-08-20T01:07:51.176Z,7.63
2018-08-20T01:10:24.502Z,6.77
2018-08-20T01:12:53.682Z,7.60
2018-08-20T01:15:23.338Z,7.13
2018-08-20T01:17:53.631Z,7.40
2018-08-20T01:20:22.984Z,7.17
2018-08-20T01:22:52.509Z,7.70
2018-08-20T01:25:22.186Z,7.47
2018-08-20T01:28:41.142Z,7.47
2018-08-20T01:31:12.248Z,7.20
2018-08-20T01:34:25.868Z,7.90
2018-08-20T01:36:54.709Z,8.37
2018-08-20T01:39:23.849Z,7.33
2018-08-20T01:41:53.311Z,7.70
2018-08-20T01:44:22.943Z,7.40
2018-08-20T01:46:53.190Z,7.53
2018-08-20T01:49:22.598Z,8.30
2018-08-20T01:51:52.767Z,8.20
2018-08-20T01:54:22.438Z,8.23
2018-08-20T01:56:52.550Z,8.30
2018-08-20T01:59:22.308Z,8.77
2018-08-20T02:01:52.425Z,8.13
2018-08-20T02:04:22.725Z,8.07
2018-08-20T02:06:52.324Z,8.27
2018-08-20T02:09:22.821Z,8.17
2018-08-20T02:11:52.455Z,7.67
2018-08-20T02:14:22.607Z,8.77
2018-08-20T02:16:52.287Z,8.90
2018-08-20T02:19:22.165Z,7.20
2018-08-20T02:21:51.946Z,8.37
2018-08-20T02:24:21.861Z,9.13
2018-08-20T02:26:51.930Z,8.60
2018-08-20T02:29:21.736Z,9.03
2018-08-20T02:31:51.867Z,8.10
2018-08-20T02:34:22.396Z,8.90
2018-08-20T02:36:52.055Z,8.53
2018-08-20T02:39:22.021Z,9.17
2018-08-20T02:41:52.264Z,9.23
2018-08-20T02:44:22.084Z,9.13
2018-08-20T02:46:53.804Z,8.53
2018-08-20T02:49:23.114Z,8.80
2018-08-20T02:51:52.448Z,9.80
2018-08-20T02:54:22.216Z,9.87
2018-08-20T02:56:52.225Z,9.30
2018-08-20T02:59:22.481Z,9.63
2018-08-20T03:01:51.180Z,8.83
2018-08-20T03:04:21.205Z,9.53
2018-08-20T03:06:49.744Z,9.03
2018-08-20T03:09:22.698Z,9.47
2018-08-20T03:11:55.022Z,9.60
2018-08-20T03:14:23.892Z,9.43
2018-08-20T03:16:53.129Z,9.60
2018-08-20T03:19:22.387Z,9.67
2018-08-20T03:21:51.934Z,9.73
2018-08-20T03:24:21.708Z,10.53
2018-08-20T03:26:51.417Z,10.80
2018-08-20T03:29:21.088Z,10.17
2018-08-20T03:31:50.890Z,10.73
2018-08-20T03:34:20.974Z,8.67
2018-08-20T03:36:50.563Z,10.27
2018-08-20T03:39:20.663Z,9.97
2018-08-20T03:41:50.712Z,10.07
2018-08-20T03:44:21.029Z,10.97
2018-08-20T03:46:51.172Z,11.53
2018-08-20T03:49:21.015Z,10.93
2018-08-20T03:51:51.092Z,10.73
2018-08-20T03:54:20.857Z,10.73
2018-08-20T03:56:50.890Z,10.57
2018-08-20T03:59:58.069Z,12.20
2018-08-20T04:02:26.662Z,11.20
2018-08-20T04:04:55.268Z,10.90
2018-08-20T04:07:24.144Z,10.93
2018-08-20T04:09:53.300Z,11.07
2018-08-20T04:12:56.242Z,13.40
2018-08-20T04:15:25.007Z,11.50
2018-08-20T04:17:54.012Z,10.97
2018-08-20T04:20:23.346Z,10.87
2018-08-20T04:22:53.125Z,11.93
2018-08-20T04:25:22.667Z,9.93
2018-08-20T04:27:52.642Z,11.33
2018-08-20T04:30:22.539Z,11.37
2018-08-20T04:32:52.611Z,11.60
2018-08-20T04:35:22.607Z,11.80
2018-08-20T04:38:11.368Z,10.60
2018-08-20T04:40:42.296Z,11.80
2018-08-20T04:43:12.738Z,11.23
2018-08-20T04:45:42.372Z,11.07
2018-08-20T04:48:13.234Z,12.80
2018-08-20T04:50:42.919Z,10.80
2018-08-20T04:53:12.701Z,10.77
2018-08-20T04:55:43.209Z,11.57
2018-08-20T04:58:13.345Z,10.60
2018-08-20T05:00:42.911Z,11.77
2018-08-20T05:03:16.639Z,11.70
2018-08-20T05:05:47.834Z,11.07
2018-08-20T05:08:17.580Z,12.00
2018-08-20T05:10:47.508Z,10.77
2018-08-20T05:13:17.621Z,10.57
2018-08-20T05:15:47.703Z,10.70
2018-08-20T05:18:17.275Z,10.53
2018-08-20T05:20:47.261Z,11.43
2018-08-20T05:26:55.923Z,10.63
2018-08-20T05:29:39.910Z,11.53
2018-08-20T05:32:11.813Z,11.07
2018-08-20T05:34:41.877Z,11.17
2018-08-20T05:37:11.975Z,11.10
2018-08-20T05:39:55.063Z,11.57
2018-08-20T05:42:23.968Z,12.50
2018-08-20T05:44:52.644Z,11.17
2018-08-20T05:47:47.005Z,11.83
2018-08-20T05:50:16.866Z,10.67
2018-08-20T05:52:46.419Z,10.83
2018-08-20T05:55:15.714Z,10.47
2018-08-20T05:57:45.675Z,11.03
2018-08-20T06:00:17.134Z,9.80
2018-08-20T06:02:47.678Z,10.33
2018-08-20T06:05:17.718Z,9.83
2018-08-20T06:07:47.322Z,10.10
2018-08-20T06:10:17.492Z,9.03
2018-08-20T06:12:55.985Z,9.20
2018-08-20T06:15:24.628Z,8.57
2018-08-20T06:17:55.343Z,8.67
2018-08-20T06:20:52.733Z,9.20
2018-08-20T06:23:23.008Z,8.03
2018-08-20T06:25:52.418Z,8.40
2018-08-20T06:28:22.317Z,8.43
2018-08-20T06:30:51.615Z,9.03
2018-08-20T06:33:21.177Z,9.97
2018-08-20T06:35:50.643Z,8.07
2018-08-20T06:38:20.364Z,8.60
2018-08-20T06:40:48.987Z,8.93
2018-08-20T06:43:18.255Z,8.57
2018-08-20T06:45:47.938Z,8.77
2018-08-20T06:48:17.363Z,8.40
2018-08-20T06:50:46.866Z,8.67
2018-08-20T06:53:17.792Z,8.10
2018-08-20T06:56:13.363Z,8.40
2018-08-20T06:58:47.812Z,8.50
2018-08-20T07:01:16.902Z,7.90
2018-08-20T07:03:46.336Z,8.53
2018-08-20T07:06:16.044Z,8.60
2018-08-20T07:09:10.424Z,7.67
2018-08-20T07:11:43.541Z,8.03
2018-08-20T07:14:21.587Z,8.87
2018-08-20T07:16:50.850Z,9.77
2018-08-20T07:19:20.291Z,8.60
2018-08-20T07:21:49.897Z,9.10
2018-08-20T07:24:19.120Z,8.47
2018-08-20T07:26:48.819Z,9.37
2018-08-20T07:29:27.856Z,8.60
2018-08-20T07:31:56.422Z,8.83
2018-08-20T07:34:25.019Z,9.30
2018-08-20T07:36:54.369Z,8.80
2018-08-20T07:39:23.482Z,8.67
2018-08-20T07:44:48.947Z,8.40
2018-08-20T07:47:22.555Z,9.37
2018-08-20T07:50:06.997Z,9.00
2018-08-20T07:52:50.941Z,7.77
2018-08-20T07:55:25.729Z,7.80
2018-08-20T07:57:54.783Z,7.47
2018-08-20T08:00:23.958Z,7.63
2018-08-20T08:02:53.834Z,7.53
2018-08-20T08:05:23.091Z,6.70
2018-08-20T08:07:52.488Z,6.73
2018-08-20T08:10:22.589Z,6.60
2018-08-20T08:12:52.506Z,7.33
2018-08-20T08:15:21.198Z,6.50
2018-08-20T08:18:03.069Z,5.77
2018-08-20T08:20:50.537Z,6.43
2018-08-20T08:23:32.885Z,6.20
2018-08-20T08:26:09.299Z,5.47
2018-08-20T08:28:48.869Z,4.80
2018-08-20T08:31:34.923Z,5.10
2018-08-20T08:34:20.617Z,4.87
2018-08-20T08:37:01.757Z,4.93
2018-08-20T08:39:39.341Z,5.50
2018-08-20T08:42:22.247Z,5.40
2018-08-20T08:45:07.062Z,5.10
2018-08-20T08:47:41.422Z,4.90
2018-08-20T08:50:23.558Z,5.00
2018-08-20T08:53:06.313Z,4.30
2018-08-20T08:55:39.676Z,4.70
2018-08-20T08:58:15.275Z,4.73
2018-08-20T09:00:57.818Z,4.70
2018-08-20T09:03:37.878Z,4.10
2018-08-20T09:06:18.837Z,3.60
2018-08-20T09:09:00.192Z,4.60
2018-08-20T09:11:39.120Z,4.60
2018-08-20T09:14:16.914Z,3.97
2018-08-20T09:16:58.608Z,4.33
2018-08-20T09:19:31.465Z,4.77
2018-08-20T09:22:07.431Z,4.63
2018-08-20T09:24:43.444Z,3.90
2018-08-20T09:27:14.562Z,4.97
2018-08-20T09:29:48.825Z,4.55
2018-08-20T09:32:33.193Z,4.70
2018-08-20T09:35:12.405Z,3.90
2018-08-20T09:37:48.232Z,3.90
2018-08-20T09:40:30.801Z,4.43
2018-08-20T09:43:07.903Z,4.60
2018-08-20T09:45:47.156Z,4.50
2018-08-20T09:48:23.576Z,4.20
2018-08-20T09:51:02.727Z,3.47
2018-08-20T09:53:44.606Z,4.10
2018-08-20T09:56:26.190Z,3.37
2018-08-20T09:58:58.571Z,3.13
2018-08-20T10:01:36.656Z,3.15
2018-08-20T10:04:20.151Z,3.30
2018-08-20T10:06:58.036Z,3.00
2018-08-20T10:09:37.472Z,2.90
2018-08-20T10:12:17.437Z,3.27
2018-08-20T10:14:49.297Z,2.62
2018-08-20T10:17:30.831Z,3.63
2018-08-20T10:20:06.522Z,3.40
2018-08-20T10:22:43.712Z,3.10
2018-08-20T10:25:25.426Z,2.73
2018-08-20T10:28:03.347Z,3.07
2018-08-20T10:30:42.540Z,2.90
2018-08-20T10:33:26.200Z,2.60
2018-08-20T10:36:10.833Z,2.50
2018-08-20T10:38:44.201Z,2.27
2018-08-20T10:41:18.175Z,2.10
2018-08-20T10:43:48.248Z,2.37
2018-08-20T10:46:34.807Z,2.43
2018-08-20T10:49:13.963Z,2.10
2018-08-20T10:51:54.375Z,1.67
2018-08-20T10:54:31.794Z,1.90
2018-08-20T10:57:07.966Z,1.90
2018-08-20T10:59:44.007Z,2.07
2018-08-20T11:02:25.462Z,2.23
2018-08-20T11:05:01.474Z,2.67
2018-08-20T11:07:41.859Z,2.40
2018-08-20T11:10:23.106Z,2.80
2018-08-20T11:13:02.401Z,2.03
2018-08-20T11:15:37.757Z,2.40
2018-08-20T11:18:16.049Z,2.43
2018-08-20T11:21:04.370Z,2.37
2018-08-20T11:23:39.520Z,2.30
2018-08-20T11:26:21.409Z,2.33
2018-08-20T11:28:53.572Z,2.40
2018-08-20T11:31:26.447Z,2.70
2018-08-20T11:33:56.636Z,2.30
2018-08-20T11:36:32.172Z,2.10
2018-08-20T11:39:14.367Z,2.00
2018-08-20T11:41:52.316Z,1.83
2018-08-20T11:44:30.598Z,2.10
2018-08-20T11:47:07.929Z,1.70
2018-08-20T11:49:46.934Z,2.00
2018-08-20T11:52:27.931Z,2.23
2018-08-20T11:55:04.766Z,1.70
2018-08-20T11:57:37.864Z,2.10
2018-08-20T12:00:11.919Z,2.13
2018-08-20T12:02:56.061Z,1.63
2018-08-20T12:05:30.788Z,1.70
2018-08-20T12:08:05.883Z,1.80
2018-08-20T12:10:42.836Z,2.10
2018-08-20T12:13:21.885Z,1.70
2018-08-20T12:15:55.068Z,1.77
2018-08-20T12:18:24.831Z,1.57
2018-08-20T12:20:53.533Z,2.20
2018-08-20T12:23:35.862Z,2.42
2018-08-20T12:26:11.006Z,2.07
2018-08-20T12:28:41.404Z,2.03
2018-08-20T12:31:22.397Z,2.30
2018-08-20T12:34:02.079Z,2.20
2018-08-20T12:36:39.389Z,2.43
2018-08-20T12:39:16.020Z,2.00
2018-08-20T12:41:48.760Z,2.00
2018-08-20T12:44:30.720Z,2.30
2018-08-20T12:47:07.061Z,2.30
2018-08-20T12:49:45.947Z,2.73
2018-08-20T12:52:24.987Z,2.40
2018-08-20T12:54:54.832Z,2.20
2018-08-20T12:57:24.991Z,2.00
2018-08-20T13:00:02.008Z,2.00
2018-08-20T13:02:48.917Z,2.07
2018-08-20T13:05:29.811Z,2.27
2018-08-20T13:08:02.213Z,2.20
2018-08-20T13:10:40.215Z,1.87
2018-08-20T13:13:17.075Z,1.93
2018-08-20T13:15:55.931Z,1.77
2018-08-20T13:18:26.802Z,2.00
2018-08-20T13:20:56.855Z,2.10
2018-08-20T13:23:26.549Z,1.60
2018-08-20T13:25:58.662Z,1.80
2018-08-20T13:28:33.056Z,2.20
2018-08-20T13:31:19.925Z,2.10
2018-08-20T13:34:01.061Z,2.17
2018-08-20T13:36:33.537Z,1.67
2018-08-20T13:39:13.661Z,2.13
2018-08-20T13:44:39.503Z,1.73
2018-08-20T13:47:26.178Z,2.20
2018-08-20T13:50:10.750Z,2.40
2018-08-20T13:52:49.221Z,2.67
2018-08-20T13:55:27.018Z,2.37
2018-08-20T13:58:11.173Z,2.23
2018-08-20T14:00:42.654Z,2.60
2018-08-20T14:03:24.975Z,2.90
2018-08-20T14:06:03.171Z,2.83
2018-08-20T14:08:38.275Z,2.47
2018-08-20T14:11:13.115Z,2.80
2018-08-20T14:13:53.585Z,2.60
2018-08-20T14:16:32.567Z,2.93
2018-08-20T14:19:07.886Z,2.77
2018-08-20T14:21:42.300Z,2.50
2018-08-20T14:24:20.319Z,2.67
2018-08-20T14:26:53.112Z,2.47
2018-08-20T14:29:31.645Z,2.70
2018-08-20T14:32:05.862Z,3.35
2018-08-20T14:34:41.713Z,2.50
2018-08-20T14:37:14.824Z,2.37
2018-08-20T14:40:01.758Z,2.15
2018-08-20T14:42:36.786Z,2.37
2018-08-20T14:45:25.480Z,2.40
2018-08-20T14:48:05.083Z,2.17
2018-08-20T14:50:41.183Z,2.60
2018-08-20T14:53:18.346Z,1.97
2018-08-20T14:55:59.986Z,2.30
2018-08-20T14:58:29.881Z,2.43
2018-08-20T15:01:02.832Z,2.27
2018-08-20T15:03:48.910Z,2.50
2018-08-20T15:06:18.274Z,1.97
2018-08-20T15:08:58.536Z,2.60
2018-08-20T15:11:38.694Z,2.23
2018-08-20T15:14:16.344Z,2.40
2018-08-20T15:16:58.755Z,2.23
2018-08-20T15:19:31.430Z,2.37
2018-08-20T15:22:07.327Z,2.30
2018-08-20T15:24:42.922Z,2.97
2018-08-20T15:27:24.475Z,2.23
2018-08-20T15:30:07.258Z,2.57
2018-08-20T15:32:47.043Z,2.77
2018-08-20T15:35:28.637Z,2.63
2018-08-20T15:38:06.947Z,2.50
2018-08-20T15:40:43.857Z,2.77
2018-08-20T15:43:35.229Z,2.47
2018-08-20T15:46:10.439Z,2.50
2018-08-20T15:49:06.929Z,2.47
2018-08-20T15:51:42.165Z,2.50
2018-08-20T15:54:25.729Z,2.60
2018-08-20T15:57:07.129Z,2.10
2018-08-20T15:59:50.514Z,2.40
2018-08-20T16:02:32.190Z,2.20
2018-08-20T16:05:07.931Z,3.10
2018-08-20T16:07:44.013Z,2.60
2018-08-20T16:10:20.056Z,2.80
2018-08-20T16:13:01.583Z,2.97
2018-08-20T16:15:35.369Z,3.00
2018-08-20T16:18:17.164Z,3.10
2018-08-20T16:21:02.022Z,2.87
2018-08-20T16:23:37.701Z,2.93
2018-08-20T16:26:19.060Z,2.93
2018-08-20T16:29:05.178Z,2.50
2018-08-20T16:31:49.378Z,2.63
2018-08-20T16:34:23.407Z,3.00
2018-08-20T16:36:53.422Z,2.73
2018-08-20T16:39:29.184Z,2.80
2018-08-20T16:42:10.196Z,3.20
2018-08-20T16:44:47.176Z,3.17
2018-08-20T16:47:29.324Z,2.80
2018-08-20T16:50:04.620Z,2.90
2018-08-20T16:52:37.670Z,3.13
2018-08-20T16:55:14.815Z,2.60
2018-08-20T16:58:02.072Z,2.87
2018-08-20T17:00:37.545Z,3.20
2018-08-20T17:03:20.036Z,2.30
2018-08-20T17:06:06.606Z,2.53
2018-08-20T17:08:49.544Z,2.70
2018-08-20T17:11:33.415Z,2.30
2018-08-20T17:14:18.020Z,2.87
2018-08-20T17:16:59.352Z,2.33
2018-08-20T17:19:36.469Z,2.53
2018-08-20T17:22:13.588Z,2.80
2018-08-20T17:25:04.955Z,2.53
2018-08-20T17:27:38.433Z,2.70
2018-08-20T17:30:16.030Z,2.37
2018-08-20T17:32:56.880Z,3.00
2018-08-20T17:35:40.348Z,2.77
2018-08-20T17:38:23.093Z,2.40
2018-08-20T17:40:52.635Z,2.60
2018-08-20T17:43:21.654Z,2.73
2018-08-20T17:45:51.399Z,3.10
2018-08-20T17:48:25.558Z,2.47
2018-08-20T17:50:54.154Z,2.53
2018-08-20T17:53:23.156Z,3.00
2018-08-20T17:55:51.890Z,2.63
2018-08-20T17:58:21.542Z,2.77
2018-08-20T18:00:53.861Z,2.70
2018-08-20T18:03:27.401Z,2.40
2018-08-20T18:05:57.418Z,2.30
2018-08-20T18:08:27.406Z,3.00
2018-08-20T18:10:56.274Z,2.60
2018-08-20T18:13:42.273Z,2.70
2018-08-20T18:16:14.024Z,2.63
2018-08-20T18:18:46.422Z,3.17
2018-08-20T18:21:15.409Z,2.40
2018-08-20T18:23:45.815Z,2.67
2018-08-20T18:26:15.436Z,2.77
2018-08-20T18:28:49.810Z,2.90
2018-08-20T18:31:23.236Z,3.27
2018-08-20T18:33:52.626Z,3.00
2018-08-20T18:36:24.674Z,3.10
2018-08-20T18:38:55.067Z,2.60
2018-08-20T18:47:53.246Z,2.73
2018-08-20T18:50:22.005Z,3.10
2018-08-20T18:52:51.107Z,3.20
2018-08-20T18:55:20.146Z,3.20
2018-08-20T18:57:49.437Z,3.17
2018-08-20T19:00:18.915Z,3.20
2018-08-20T19:02:51.963Z,3.30
2018-08-20T19:05:21.284Z,3.47
2018-08-20T19:07:49.956Z,3.17
2018-08-20T19:10:21.562Z,3.60
2018-08-20T19:12:50.919Z,3.47
2018-08-20T19:15:38.445Z,2.97
2018-08-20T19:18:10.814Z,3.03
2018-08-20T19:20:41.611Z,3.07
2018-08-20T19:23:11.052Z,3.10
2018-08-20T19:25:40.748Z,3.13
2018-08-20T19:28:16.060Z,3.57
2018-08-20T19:30:45.317Z,3.30
2018-08-20T19:33:25.309Z,3.60
2018-08-20T19:35:54.534Z,3.30
2018-08-20T19:38:23.310Z,3.30
2018-08-20T19:41:15.638Z,3.10
2018-08-20T19:43:47.151Z,3.00
2018-08-20T19:46:25.067Z,2.70
2018-08-20T19:48:57.988Z,2.77
2018-08-20T19:51:26.646Z,2.60
2018-08-20T19:53:56.170Z,2.57
2018-08-20T19:56:24.879Z,2.37
2018-08-20T19:58:53.685Z,2.70
2018-08-20T20:01:22.688Z,2.60
2018-08-20T20:03:51.922Z,2.40
2018-08-20T20:06:20.943Z,2.83
2018-08-20T20:08:50.162Z,2.17
2018-08-20T20:11:25.592Z,2.10
2018-08-20T20:13:56.697Z,2.50
2018-08-20T20:16:25.752Z,1.90
2018-08-20T20:18:54.610Z,1.80
2018-08-20T20:21:23.674Z,2.07
2018-08-20T20:23:53.087Z,2.03
2018-08-20T20:26:21.860Z,1.83
2018-08-20T20:28:51.274Z,1.80
2018-08-20T20:31:21.240Z,1.90
2018-08-20T20:33:50.535Z,1.70
2018-08-20T20:36:24.093Z,1.53
2018-08-20T20:38:53.453Z,1.57
2018-08-20T20:41:22.890Z,1.67
2018-08-20T20:43:52.745Z,1.30
2018-08-20T20:46:22.205Z,1.57
2018-08-20T20:48:51.084Z,1.60
2018-08-20T20:51:20.396Z,1.70
2018-08-20T20:53:50.053Z,1.90
2018-08-20T20:56:19.459Z,1.30
2018-08-20T20:58:48.422Z,1.10
2018-08-20T21:01:17.876Z,1.47
2018-08-20T21:03:47.367Z,1.50
2018-08-20T21:06:16.404Z,1.40
2018-08-20T21:08:47.952Z,1.37
2018-08-20T21:11:18.554Z,1.30
2018-08-20T21:13:48.549Z,1.03
2018-08-20T21:16:19.285Z,1.30
2018-08-20T21:18:51.354Z,1.30
2018-08-20T21:21:20.551Z,1.67
2018-08-20T21:23:50.328Z,1.40
2018-08-20T21:26:19.666Z,1.50
2018-08-20T21:28:49.522Z,1.50
2018-08-20T21:31:20.431Z,1.57
2018-08-20T21:33:56.038Z,1.50
2018-08-20T21:36:24.642Z,1.10
2018-08-20T21:38:53.240Z,1.40
2018-08-20T21:41:27.523Z,1.30
2018-08-20T21:43:56.106Z,1.50
2018-08-20T21:46:24.679Z,1.40
2018-08-20T21:48:53.571Z,1.30
2018-08-20T21:52:28.346Z,1.40
2018-08-20T21:54:56.869Z,1.70
2018-08-20T21:57:25.414Z,1.07
2018-08-20T22:00:08.080Z,1.20
2018-08-20T22:02:39.844Z,1.60
2018-08-20T22:05:11.682Z,1.20
2018-08-20T22:07:41.721Z,1.07
2018-08-20T22:10:11.824Z,1.27
2018-08-20T22:12:41.239Z,1.07
2018-08-20T22:15:10.981Z,1.03
2018-08-20T22:17:43.331Z,1.00
2018-08-20T22:20:12.432Z,1.10
2018-08-20T22:22:41.974Z,1.10
2018-08-20T22:25:13.101Z,1.10
2018-08-20T22:27:48.089Z,0.97
2018-08-20T22:30:17.604Z,1.23
2018-08-20T22:32:47.084Z,0.90
2018-08-20T22:35:21.647Z,1.07
2018-08-20T22:37:51.450Z,1.33
2018-08-20T22:40:21.179Z,1.20
2018-08-20T22:42:54.994Z,0.90
2018-08-20T22:45:23.551Z,1.07
2018-08-20T22:47:52.786Z,0.73
2018-08-20T22:50:21.564Z,1.20
2018-08-20T22:52:51.626Z,1.13
2018-08-20T22:55:21.726Z,1.23
2018-08-20T22:58:09.916Z,1.00
2018-08-20T23:00:40.108Z,1.20
2018-08-20T23:03:10.327Z,0.90
2018-08-20T23:05:40.646Z,0.70
2018-08-20T23:08:15.864Z,1.13
2018-08-20T23:10:45.250Z,0.80
2018-08-20T23:13:14.756Z,1.10
2018-08-20T23:15:43.950Z,1.03
2018-08-20T23:18:14.673Z,1.10
2018-08-20T23:20:46.206Z,1.17
2018-08-20T23:23:22.412Z,1.10
2018-08-20T23:25:56.088Z,1.10
2018-08-20T23:28:24.973Z,1.07
2018-08-20T23:30:58.143Z,0.93
2018-08-20T23:33:27.439Z,0.90
2018-08-20T23:35:56.043Z,0.90
2018-08-20T23:38:24.794Z,0.80
2018-08-20T23:40:53.864Z,1.33
2018-08-20T23:43:22.988Z,1.07
2018-08-20T23:45:53.077Z,1.30
2018-08-20T23:48:22.986Z,0.90
2018-08-20T23:50:58.167Z,1.00
2018-08-20T23:53:27.405Z,0.80
2018-08-20T23:55:56.777Z,0.90
2018-08-20T23:58:28.898Z,1.00
